createdAt,value
2022-08-26T00:02:14.122Z,23.84
2022-08-26T00:05:18.310Z,23.79
2022-08-26T00:08:21.816Z,23.88
2022-08-26T00:11:26.287Z,23.78
2022-08-26T00:14:31.151Z,23.91
2022-08-26T00:17:35.304Z,23.83
2022-08-26T00:20:39.439Z,23.78
2022-08-26T00:23:46.080Z,23.64
2022-08-26T00:26:49.698Z,23.80
2022-08-26T00:29:53.763Z,23.78
2022-08-26T00:32:59.424Z,23.73
2022-08-26T00:36:02.530Z,23.65
2022-08-26T00:39:07.117Z,23.48
2022-08-26T00:42:10.162Z,23.44
2022-08-26T00:45:14.332Z,23.55
2022-08-26T00:48:21.395Z,23.52
2022-08-26T00:51:29.753Z,23.43
2022-08-26T00:54:37.567Z,23.39
2022-08-26T00:57:46.142Z,23.39
2022-08-26T01:00:49.059Z,23.38
2022-08-26T01:03:52.543Z,23.37
2022-08-26T01:06:55.604Z,23.35
2022-08-26T01:10:00.849Z,23.29
2022-08-26T01:13:10.120Z,23.24
2022-08-26T01:16:15.951Z,23.40
2022-08-26T01:19:24.997Z,23.35
2022-08-26T01:22:38.696Z,23.25
2022-08-26T01:26:05.393Z,23.28
2022-08-26T01:29:13.642Z,23.05
2022-08-26T01:32:19.859Z,23.00
2022-08-26T01:35:23.128Z,22.97
2022-08-26T01:38:27.804Z,23.09
2022-08-26T01:41:36.515Z,23.12
2022-08-26T01:44:46.146Z,23.32
2022-08-26T01:47:50.511Z,23.23
2022-08-26T01:51:03.465Z,23.21
2022-08-26T01:54:11.803Z,23.08
2022-08-26T01:57:17.507Z,23.09
2022-08-26T02:00:20.125Z,22.98
2022-08-26T02:03:24.045Z,22.77
2022-08-26T02:06:27.429Z,22.90
2022-08-26T02:09:30.808Z,23.00
2022-08-26T02:12:33.929Z,23.01
2022-08-26T02:15:37.822Z,22.83
2022-08-26T02:18:42.198Z,22.60
2022-08-26T02:21:51.305Z,22.69
2022-08-26T02:25:13.749Z,22.69
2022-08-26T02:28:17.698Z,22.60
2022-08-26T02:31:23.851Z,22.48
2022-08-26T02:34:32.057Z,22.46
2022-08-26T02:37:35.462Z,22.64
2022-08-26T02:40:41.373Z,22.51
2022-08-26T02:43:44.634Z,22.45
2022-08-26T02:46:47.563Z,22.39
2022-08-26T02:49:51.815Z,22.43
2022-08-26T02:52:54.589Z,22.35
2022-08-26T02:55:57.540Z,22.34
2022-08-26T02:59:02.415Z,22.32
2022-08-26T03:02:07.382Z,22.23
2022-08-26T03:05:14.439Z,22.44
2022-08-26T03:08:20.217Z,22.30
2022-08-26T03:11:24.178Z,22.23
2022-08-26T03:14:27.750Z,22.19
2022-08-26T03:17:32.677Z,22.27
2022-08-26T03:20:38.823Z,22.17
2022-08-26T03:23:43.369Z,22.17
2022-08-26T03:26:52.052Z,22.10
2022-08-26T03:30:14.137Z,22.04
2022-08-26T03:33:17.970Z,21.98
2022-08-26T03:36:21.309Z,22.02
2022-08-26T03:39:24.235Z,22.06
2022-08-26T03:42:27.118Z,22.04
2022-08-26T03:45:30.453Z,21.91
2022-08-26T03:48:34.149Z,21.98
2022-08-26T03:51:39.098Z,21.85
2022-08-26T03:54:41.716Z,21.67
2022-08-26T03:57:46.534Z,21.79
2022-08-26T04:00:49.122Z,21.79
2022-08-26T04:04:00.571Z,21.91
2022-08-26T04:07:04.023Z,21.96
2022-08-26T04:10:08.172Z,21.88
2022-08-26T04:13:12.602Z,21.71
2022-08-26T04:16:17.693Z,21.91
2022-08-26T04:19:25.601Z,21.89
2022-08-26T04:22:29.384Z,21.86
2022-08-26T04:25:33.980Z,21.90
2022-08-26T04:28:51.925Z,22.03
2022-08-26T04:31:57.833Z,22.09
2022-08-26T04:35:07.701Z,22.21
2022-08-26T04:38:20.045Z,22.41
2022-08-26T04:41:24.167Z,22.56
2022-08-26T04:44:29.995Z,22.79
2022-08-26T04:47:34.460Z,23.04
2022-08-26T04:50:40.800Z,23.12
2022-08-26T04:53:47.237Z,23.22
2022-08-26T04:56:51.073Z,23.20
2022-08-26T04:59:54.537Z,23.40
2022-08-26T05:02:58.734Z,23.62
2022-08-26T05:06:05.589Z,23.87
2022-08-26T05:09:09.861Z,23.96
2022-08-26T05:12:12.871Z,24.33
2022-08-26T05:15:15.941Z,24.37
2022-08-26T05:18:22.843Z,24.60
2022-08-26T05:22:07.815Z,25.03
2022-08-26T05:26:17.246Z,25.94
2022-08-26T05:29:25.603Z,26.15
2022-08-26T05:32:28.861Z,26.23
2022-08-26T05:35:34.709Z,26.61
2022-08-26T05:38:38.422Z,26.61
2022-08-26T05:41:44.745Z,27.08
2022-08-26T05:49:03.975Z,26.44
2022-08-26T05:53:07.530Z,27.50
2022-08-26T06:01:19.709Z,27.79
2022-08-26T06:04:51.933Z,28.48
2022-08-26T06:08:21.420Z,28.35
2022-08-26T06:11:25.701Z,28.54
2022-08-26T06:14:28.631Z,28.77
2022-08-26T06:17:34.070Z,28.28
2022-08-26T06:20:43.612Z,28.57
2022-08-26T06:24:26.937Z,29.26
2022-08-26T06:27:32.654Z,29.63
2022-08-26T06:30:40.599Z,29.85
2022-08-26T06:33:44.734Z,30.03
2022-08-26T06:36:49.443Z,30.28
2022-08-26T06:39:59.147Z,30.50
2022-08-26T06:43:02.367Z,30.35
2022-08-26T06:46:09.500Z,30.62
2022-08-26T06:49:14.889Z,31.00
2022-08-26T06:52:24.297Z,31.11
2022-08-26T06:55:28.414Z,31.10
2022-08-26T06:58:32.722Z,31.35
2022-08-26T07:01:39.226Z,31.73
2022-08-26T07:04:48.466Z,32.05
2022-08-26T07:07:54.552Z,32.06
2022-08-26T07:11:25.086Z,31.68
2022-08-26T07:14:28.986Z,32.42
2022-08-26T07:17:32.663Z,31.54
2022-08-26T07:20:42.292Z,30.92
2022-08-26T07:23:45.787Z,32.05
2022-08-26T07:26:49.872Z,32.52
2022-08-26T07:29:57.227Z,32.35
2022-08-26T07:33:03.863Z,32.15
2022-08-26T07:36:08.682Z,32.34
2022-08-26T07:39:13.617Z,33.69
2022-08-26T07:42:19.758Z,33.18
2022-08-26T07:45:26.661Z,32.21
2022-08-26T07:48:56.603Z,33.05
2022-08-26T07:52:57.842Z,33.97
2022-08-26T07:56:06.787Z,34.20
2022-08-26T07:59:14.070Z,33.87
2022-08-26T08:02:18.301Z,33.25
2022-08-26T08:05:23.397Z,33.74
2022-08-26T08:08:37.272Z,33.73
2022-08-26T08:11:41.503Z,35.11
2022-08-26T08:14:50.929Z,34.01
2022-08-26T08:18:00.230Z,34.25
2022-08-26T08:25:10.564Z,34.78
2022-08-26T08:28:15.977Z,34.75
2022-08-26T08:31:38.734Z,34.92
2022-08-26T08:34:44.543Z,34.77
2022-08-26T08:37:47.370Z,35.73
2022-08-26T08:40:50.552Z,36.41
2022-08-26T08:43:54.439Z,36.34
2022-08-26T08:47:12.933Z,36.58
2022-08-26T08:58:48.260Z,35.86
2022-08-26T09:01:54.077Z,36.39
2022-08-26T09:05:16.731Z,35.90
2022-08-26T09:08:30.352Z,35.65
2022-08-26T09:11:36.454Z,35.35
2022-08-26T09:14:40.607Z,35.87
2022-08-26T09:18:06.336Z,35.98
2022-08-26T09:21:17.899Z,36.36
2022-08-26T09:24:22.310Z,36.46
2022-08-26T09:27:46.186Z,35.73
2022-08-26T09:31:13.213Z,35.74
2022-08-26T09:34:28.071Z,37.35
2022-08-26T09:37:40.606Z,35.82
2022-08-26T09:40:59.090Z,36.84
2022-08-26T09:59:11.008Z,36.97
2022-08-26T10:02:32.521Z,37.25
2022-08-26T10:05:51.469Z,38.38
2022-08-26T10:09:02.758Z,37.23
2022-08-26T10:12:22.269Z,36.82
2022-08-26T10:15:28.199Z,37.63
2022-08-26T10:18:40.152Z,37.89
2022-08-26T10:21:58.769Z,36.90
2022-08-26T10:25:34.460Z,36.66
2022-08-26T10:28:44.396Z,37.48
2022-08-26T10:31:52.144Z,36.67
2022-08-26T10:34:55.151Z,36.86
2022-08-26T10:38:04.770Z,36.51
2022-08-26T10:41:16.997Z,37.70
2022-08-26T10:44:23.814Z,36.99
2022-08-26T10:48:07.294Z,36.95
2022-08-26T10:51:13.414Z,38.11
2022-08-26T10:55:35.692Z,37.53
2022-08-26T10:58:41.722Z,37.28
2022-08-26T11:01:58.130Z,36.24
2022-08-26T11:05:05.567Z,37.13
2022-08-26T11:08:29.797Z,37.15
2022-08-26T11:12:10.067Z,37.52
2022-08-26T11:15:24.546Z,35.89
2022-08-26T11:18:42.890Z,36.89
2022-08-26T11:22:06.057Z,36.93
2022-08-26T11:25:11.685Z,36.34
2022-08-26T11:28:34.713Z,37.20
2022-08-26T11:31:40.410Z,36.89
2022-08-26T11:34:57.068Z,36.36
2022-08-26T11:38:28.815Z,36.51
2022-08-26T11:41:33.599Z,36.01
2022-08-26T11:44:49.033Z,36.81
2022-08-26T11:47:53.058Z,37.28
2022-08-26T11:51:06.913Z,36.78
2022-08-26T11:54:16.410Z,36.40
2022-08-26T11:57:19.697Z,36.51
2022-08-26T12:00:34.630Z,36.35
2022-08-26T12:03:45.484Z,36.06
2022-08-26T12:06:54.007Z,37.32
2022-08-26T12:10:04.967Z,38.25
2022-08-26T12:13:25.072Z,37.24
2022-08-26T12:16:32.956Z,36.55
2022-08-26T12:19:36.606Z,36.05
2022-08-26T12:22:43.522Z,36.60
2022-08-26T12:26:05.950Z,35.49
2022-08-26T12:29:27.261Z,34.72
2022-08-26T12:32:35.596Z,34.55
2022-08-26T12:46:36.413Z,34.80
2022-08-26T12:49:47.966Z,34.51
2022-08-26T13:02:09.508Z,34.29
2022-08-26T13:05:22.109Z,33.76
2022-08-26T13:08:28.280Z,34.32
2022-08-26T13:11:33.779Z,33.86
2022-08-26T13:14:40.576Z,33.88
2022-08-26T13:17:58.414Z,34.06
2022-08-26T13:21:12.333Z,34.31
2022-08-26T13:24:43.909Z,34.01
2022-08-26T13:27:54.156Z,34.28
2022-08-26T13:30:58.001Z,34.45
2022-08-26T13:34:00.923Z,34.56
2022-08-26T13:37:04.832Z,34.05
2022-08-26T13:40:08.559Z,34.11
2022-08-26T13:43:13.968Z,33.92
2022-08-26T13:46:37.152Z,33.81
2022-08-26T13:49:42.592Z,34.15
2022-08-26T13:52:45.345Z,34.00
2022-08-26T13:55:49.262Z,33.75
2022-08-26T13:58:54.298Z,33.97
2022-08-26T14:01:58.991Z,34.01
2022-08-26T14:05:02.622Z,33.87
2022-08-26T14:08:07.506Z,33.78
2022-08-26T14:11:12.076Z,33.58
2022-08-26T14:14:14.700Z,33.55
2022-08-26T14:17:22.866Z,33.62
2022-08-26T14:20:29.151Z,33.32
2022-08-26T14:23:33.040Z,33.61
2022-08-26T14:26:37.643Z,33.86
2022-08-26T14:29:42.371Z,33.94
2022-08-26T14:32:48.919Z,33.73
2022-08-26T14:35:52.412Z,33.72
2022-08-26T14:38:56.812Z,33.97
2022-08-26T14:42:00.733Z,33.81
2022-08-26T14:45:07.207Z,33.76
2022-08-26T14:48:11.113Z,33.81
2022-08-26T14:51:14.049Z,33.67
2022-08-26T14:59:01.386Z,33.82
2022-08-26T15:02:07.768Z,33.87
2022-08-26T15:05:11.684Z,33.67
2022-08-26T15:08:14.892Z,33.52
2022-08-26T15:11:18.441Z,33.36
2022-08-26T15:14:22.573Z,33.57
2022-08-26T15:17:26.369Z,33.54
2022-08-26T15:20:29.458Z,33.40
2022-08-26T15:23:35.217Z,33.45
2022-08-26T15:26:38.825Z,33.40
2022-08-26T15:29:41.775Z,33.07
2022-08-26T15:32:44.708Z,33.16
2022-08-26T15:35:47.328Z,33.11
2022-08-26T15:38:50.478Z,33.11
2022-08-26T15:41:56.154Z,33.05
2022-08-26T15:44:59.647Z,33.05
2022-08-26T15:48:03.548Z,33.07
2022-08-26T15:51:18.463Z,33.08
2022-08-26T15:54:23.208Z,32.91
2022-08-26T15:57:26.355Z,32.89
2022-08-26T16:00:29.479Z,32.82
2022-08-26T16:03:32.527Z,32.77
2022-08-26T16:06:37.863Z,32.64
2022-08-26T16:09:40.799Z,32.57
2022-08-26T16:12:43.961Z,32.47
2022-08-26T16:16:13.004Z,32.22
2022-08-26T16:19:15.880Z,32.19
2022-08-26T16:22:19.057Z,32.18
2022-08-26T16:25:22.570Z,32.23
2022-08-26T16:28:26.508Z,32.17
2022-08-26T16:31:29.943Z,32.16
2022-08-26T16:34:33.171Z,32.08
2022-08-26T16:37:39.024Z,32.00
2022-08-26T16:40:42.404Z,31.95
2022-08-26T16:43:45.453Z,31.91
2022-08-26T16:46:48.802Z,31.87
2022-08-26T16:49:54.674Z,31.65
2022-08-26T16:57:42.916Z,31.47
2022-08-26T17:04:36.451Z,31.28
2022-08-26T17:08:01.131Z,31.25
2022-08-26T17:11:04.291Z,31.01
2022-08-26T17:14:43.657Z,30.98
2022-08-26T17:18:10.991Z,30.91
2022-08-26T17:21:54.652Z,30.83
2022-08-26T17:25:25.884Z,30.67
2022-08-26T17:28:53.193Z,30.51
2022-08-26T17:40:35.919Z,30.27
2022-08-26T17:43:41.235Z,30.08
2022-08-26T17:46:43.918Z,30.03
2022-08-26T17:49:47.137Z,29.92
2022-08-26T17:56:55.184Z,29.83
2022-08-26T18:00:00.601Z,29.69
2022-08-26T18:03:04.094Z,29.47
2022-08-26T18:06:25.084Z,29.25
2022-08-26T18:09:35.188Z,29.19
2022-08-26T18:12:38.187Z,29.14
2022-08-26T18:15:43.080Z,29.03
2022-08-26T18:18:47.895Z,28.96
2022-08-26T18:26:26.800Z,28.88
2022-08-26T18:29:29.835Z,28.73
2022-08-26T18:32:32.425Z,28.69
2022-08-26T18:35:45.276Z,28.56
2022-08-26T18:38:50.415Z,28.45
2022-08-26T18:41:53.616Z,28.38
2022-08-26T18:44:56.409Z,28.28
2022-08-26T18:47:59.541Z,28.23
2022-08-26T18:51:02.312Z,28.20
2022-08-26T18:54:08.287Z,28.14
2022-08-26T18:57:12.140Z,28.03
2022-08-26T19:00:15.669Z,27.96
2022-08-26T19:03:19.269Z,27.88
2022-08-26T19:06:23.982Z,27.86
2022-08-26T19:09:27.261Z,27.80
2022-08-26T19:12:30.542Z,27.77
2022-08-26T19:15:41.281Z,27.79
2022-08-26T19:18:45.318Z,27.67
2022-08-26T19:21:52.996Z,27.59
2022-08-26T19:29:34.493Z,27.31
2022-08-26T19:32:38.332Z,27.21
2022-08-26T19:35:47.756Z,27.20
2022-08-26T19:46:45.964Z,26.94
2022-08-26T19:49:54.312Z,27.07
2022-08-26T19:52:56.975Z,26.96
2022-08-26T19:55:59.896Z,26.93
2022-08-26T19:59:03.592Z,26.89
2022-08-26T20:02:11.066Z,26.98
2022-08-26T20:05:16.145Z,26.80
2022-08-26T20:08:22.408Z,26.61
2022-08-26T20:11:26.217Z,26.66
2022-08-26T20:14:48.723Z,26.62
2022-08-26T20:17:52.378Z,26.54
2022-08-26T20:21:13.878Z,26.46
2022-08-26T20:24:19.942Z,26.28
2022-08-26T20:27:47.336Z,26.26
2022-08-26T20:30:50.919Z,26.24
2022-08-26T20:33:54.525Z,26.34
2022-08-26T20:36:57.956Z,26.33
2022-08-26T20:40:01.211Z,26.32
2022-08-26T20:43:06.050Z,26.22
2022-08-26T20:46:17.954Z,26.13
2022-08-26T20:49:22.656Z,25.93
2022-08-26T20:52:25.820Z,25.91
2022-08-26T20:55:29.736Z,25.98
2022-08-26T20:58:34.711Z,25.90
2022-08-26T21:01:42.403Z,25.90
2022-08-26T21:04:45.328Z,26.05
2022-08-26T21:07:48.425Z,25.92
2022-08-26T21:10:52.121Z,25.90
2022-08-26T21:14:16.762Z,25.83
2022-08-26T21:17:20.935Z,25.81
2022-08-26T21:20:24.641Z,25.61
2022-08-26T21:23:47.748Z,25.63
2022-08-26T21:26:51.888Z,25.50
2022-08-26T21:29:54.815Z,25.38
2022-08-26T21:33:40.945Z,25.34
2022-08-26T21:37:09.023Z,25.18
2022-08-26T21:40:19.497Z,25.24
2022-08-26T21:43:35.105Z,25.32
2022-08-26T21:46:38.604Z,25.18
2022-08-26T21:49:41.303Z,25.32
2022-08-26T21:52:46.594Z,25.29
2022-08-26T21:55:49.394Z,25.19
2022-08-26T21:58:55.029Z,25.04
2022-08-26T22:01:58.867Z,24.97
2022-08-26T22:05:02.147Z,24.85
2022-08-26T22:08:04.846Z,24.72
2022-08-26T22:11:09.533Z,24.67
2022-08-26T22:14:12.575Z,24.70
2022-08-26T22:17:17.186Z,24.65
2022-08-26T22:20:20.048Z,24.64
2022-08-26T22:23:23.913Z,24.69
2022-08-26T22:26:30.383Z,24.62
2022-08-26T22:29:33.391Z,24.70
2022-08-26T22:32:39.549Z,24.52
2022-08-26T22:35:48.345Z,24.53
2022-08-26T22:38:51.232Z,24.49
2022-08-26T22:41:55.252Z,24.48
2022-08-26T22:44:58.255Z,24.33
2022-08-26T22:48:05.113Z,24.52
2022-08-26T22:51:07.800Z,24.12
2022-08-26T22:54:11.354Z,24.21
2022-08-26T22:57:14.004Z,24.09
2022-08-26T23:00:17.006Z,24.19
2022-08-26T23:03:20.755Z,24.15
2022-08-26T23:06:25.626Z,24.04
2022-08-26T23:09:29.265Z,24.20
2022-08-26T23:12:32.578Z,24.01
2022-08-26T23:15:36.320Z,24.01
2022-08-26T23:18:40.849Z,23.84
2022-08-26T23:21:43.911Z,23.76
2022-08-26T23:24:46.798Z,23.89
2022-08-26T23:27:50.234Z,23.89
2022-08-26T23:30:53.942Z,23.77
2022-08-26T23:34:15.046Z,23.69
2022-08-26T23:37:19.678Z,23.69
2022-08-26T23:40:27.109Z,23.72
2022-08-26T23:43:30.213Z,23.78
2022-08-26T23:46:33.922Z,23.66
2022-08-26T23:49:37.340Z,23.67
2022-08-26T23:52:58.733Z,23.69
2022-08-26T23:56:01.693Z,23.65
2022-08-26T23:59:04.520Z,23.66
